Time;durP1;ratioP1;P1;durP2;ratioP2;P2;SDS_P1;SDS_P2;PMS_P1;PMS_P2;Temp;Humidity;BMP_temperature;BMP_pressure;BME280_temperature;BME280_humidity;BME280_pressure;Samples;Min_cycle;Max_cycle;Signal;HPM_P1;HPM_P2
2023/10/18 00:02:07;;;;;;;9.97;7.27;;;;;;;-143.21;76.82;72770.28;5072182;28;20197;-76
2023/10/18 00:04:36;;;;;;;9.60;6.07;;;;;;;-143.21;76.01;72766.31;5071891;28;20599;-75
2023/10/18 00:07:04;;;;;;;6.80;5.57;;;;;;;-143.21;76.64;72768.28;5071723;28;20266;-75
2023/10/18 00:09:45;;;;;;;7.10;5.57;;;;;;;-143.21;76.60;72764.31;5072136;28;20289;-76
2023/10/18 00:12:16;;;;;;;8.83;5.93;;;;;;;-143.21;76.88;72768.28;5071802;28;20644;-75
2023/10/18 00:14:43;;;;;;;10.07;6.17;;;;;;;-143.21;76.90;72764.31;5071620;28;20185;-74
2023/10/18 00:17:12;;;;;;;8.67;5.80;;;;;;;-143.21;77.06;72772.25;5071774;28;20279;-77
2023/10/18 00:19:40;;;;;;;6.90;5.87;;;;;;;-143.21;77.50;72766.31;5071643;28;20854;-75
2023/10/18 00:22:09;;;;;;;9.90;6.07;;;;;;;-143.21;77.03;72770.28;5071524;28;20281;-74
2023/10/18 00:24:37;;;;;;;9.73;6.27;;;;;;;-143.21;78.15;72788.13;5072091;28;20189;-74
2023/10/18 00:27:05;;;;;;;9.77;6.40;;;;;;;-143.21;78.76;72794.06;5071334;28;20320;-74
2023/10/18 00:29:32;;;;;;;11.90;7.30;;;;;;;-143.21;79.26;72819.84;5071311;28;20790;-75
2023/10/18 00:32:00;;;;;;;8.33;6.77;;;;;;;-143.21;80.00;72817.88;5071478;28;20197;-74
2023/10/18 00:34:28;;;;;;;10.53;6.73;;;;;;;-143.21;80.52;72811.94;5071721;28;20197;-74
2023/10/18 00:36:57;;;;;;;9.53;6.63;;;;;;;-143.21;80.10;72804.00;5071117;28;20685;-74
2023/10/18 00:39:30;;;;;;;9.53;6.30;;;;;;;-143.21;80.22;72790.09;5071287;28;20281;-74
2023/10/18 00:42:23;;;;;;;9.90;7.20;;;;;;;-143.21;79.70;72784.16;5071695;28;20194;-74
2023/10/18 00:44:46;;;;;;;10.13;7.07;;;;;;;-143.21;79.63;72778.22;5070770;28;20193;-74
2023/10/18 00:47:13;;;;;;;12.53;6.73;;;;;;;-143.21;78.99;72764.31;5071186;28;20217;-74
2023/10/18 00:49:41;;;;;;;11.67;7.40;;;;;;;-143.21;78.88;72762.34;5071090;28;20595;-74
2023/10/18 00:52:10;;;;;;;10.63;7.23;;;;;;;-143.21;79.18;72764.31;5071168;28;20205;-74
2023/10/18 00:54:39;;;;;;;9.80;6.57;;;;;;;-143.21;78.94;72764.31;5071270;28;20724;-74
2023/10/18 00:57:07;;;;;;;10.37;7.20;;;;;;;-143.21;78.92;72758.38;5071443;28;20198;-74
2023/10/18 00:59:38;;;;;;;9.30;6.67;;;;;;;-143.21;79.04;72766.31;5071682;28;20632;-75
2023/10/18 01:02:10;;;;;;;9.23;6.73;;;;;;;-143.21;79.52;72760.34;5071488;28;20671;-75
2023/10/18 01:04:37;;;;;;;9.77;6.60;;;;;;;-143.21;79.54;72768.28;5070807;28;20203;-75
2023/10/18 01:07:11;;;;;;;9.57;6.50;;;;;;;-143.21;78.80;72756.38;5070867;28;20271;-75
2023/10/18 01:09:43;;;;;;;8.17;6.30;;;;;;;-143.21;78.53;72752.41;5070331;28;20201;-76
2023/10/18 01:12:11;;;;;;;11.43;7.13;;;;;;;-143.21;78.67;72748.47;5071473;28;20186;-75
2023/10/18 01:14:38;;;;;;;12.13;6.97;;;;;;;-143.21;78.61;72748.47;5072045;28;20193;-75
2023/10/18 01:17:06;;;;;;;10.60;6.93;;;;;;;-143.21;78.82;72756.38;5070816;28;20672;-75
2023/10/18 01:19:33;;;;;;;11.33;7.70;;;;;;;-143.21;79.36;72750.44;5071083;28;20194;-76
2023/10/18 01:22:00;;;;;;;10.63;8.23;;;;;;;-143.21;79.04;72746.47;5071281;28;20193;-75
2023/10/18 01:24:34;;;;;;;10.47;7.60;;;;;;;-143.21;79.36;72750.44;5071645;28;20194;-75
2023/10/18 01:27:02;;;;;;;11.77;7.93;;;;;;;-143.21;78.95;72750.44;5064318;28;20276;-75
2023/10/18 01:29:29;;;;;;;10.83;8.13;;;;;;;-143.21;78.50;72738.53;5070123;28;20268;-75
2023/10/18 01:31:56;;;;;;;15.03;9.60;;;;;;;-143.21;78.16;72728.63;5057875;28;20255;-75
2023/10/18 01:34:23;;;;;;;10.93;8.60;;;;;;;-143.21;77.74;72740.53;5070782;28;20212;-75
2023/10/18 01:36:52;;;;;;;11.20;8.73;;;;;;;-143.21;78.62;72746.47;5071092;28;20645;-75
2023/10/18 01:39:22;;;;;;;15.43;10.13;;;;;;;-143.21;78.36;72746.47;5071149;28;20702;-75
2023/10/18 01:41:53;;;;;;;12.87;9.87;;;;;;;-143.21;78.16;72748.47;5064661;28;20647;-75
2023/10/18 01:44:27;;;;;;;15.23;9.20;;;;;;;-143.21;78.34;72750.44;5058110;28;20664;-75
2023/10/18 01:46:55;;;;;;;14.57;9.93;;;;;;;-143.21;78.56;72754.41;5074708;28;20188;-75
2023/10/18 01:49:24;;;;;;;13.97;10.40;;;;;;;-143.21;78.34;72754.41;5074860;28;20201;-75
2023/10/18 01:51:53;;;;;;;18.97;11.50;;;;;;;-143.21;78.24;72758.38;5074104;28;20193;-75
2023/10/18 01:54:20;;;;;;;16.17;11.00;;;;;;;-143.21;78.06;72770.28;5074343;28;20247;-75
2023/10/18 01:56:48;;;;;;;18.03;10.97;;;;;;;-143.21;78.53;72776.22;5074531;28;20205;-74
2023/10/18 01:59:17;;;;;;;19.20;11.40;;;;;;;-143.21;78.36;72788.13;5074271;28;20201;-75
2023/10/18 02:01:45;;;;;;;16.10;11.53;;;;;;;-143.21;79.08;72805.97;5074372;28;20259;-75
2023/10/18 02:04:23;;;;;;;21.37;13.27;;;;;;;-143.21;79.92;72825.81;5074380;28;20600;-75
2023/10/18 02:06:51;;;;;;;22.70;12.87;;;;;;;-143.21;80.67;72819.84;5074100;28;20686;-75
2023/10/18 02:09:19;;;;;;;19.27;12.90;;;;;;;-143.21;81.57;72817.88;5074016;28;20308;-75
2023/10/18 02:11:46;;;;;;;19.13;12.87;;;;;;;-143.21;80.94;72815.88;5074181;28;20204;-75
2023/10/18 02:14:13;;;;;;;21.87;13.00;;;;;;;-143.21;80.78;72807.97;5074310;28;20194;-75
2023/10/18 02:16:45;;;;;;;18.53;13.07;;;;;;;-143.21;80.58;72800.03;5073845;28;20197;-75
2023/10/18 02:19:13;;;;;;;18.87;12.10;;;;;;;-143.21;80.00;72794.06;5073725;28;20217;-74
2023/10/18 02:21:41;;;;;;;18.73;13.27;;;;;;;-143.21;80.36;72786.13;5073471;28;20198;-74
2023/10/18 02:24:11;;;;;;;18.40;12.50;;;;;;;-143.21;79.60;72776.22;5074173;28;20285;-74
2023/10/18 02:26:47;;;;;;;17.17;12.20;;;;;;;-143.21;79.55;72772.25;5073697;28;20197;-74
2023/10/18 02:29:14;;;;;;;18.33;12.87;;;;;;;-143.21;79.76;72754.41;5072216;28;20240;-75
2023/10/18 02:31:42;;;;;;;18.40;11.97;;;;;;;-143.21;79.10;72742.50;5073839;28;20202;-74
2023/10/18 02:34:14;;;;;;;17.40;12.20;;;;;;;-143.21;79.04;72738.53;5073432;28;20194;-74
2023/10/18 02:36:46;;;;;;;18.40;11.97;;;;;;;-143.21;78.44;72740.53;5073061;28;20637;-74
2023/10/18 02:39:21;;;;;;;17.30;11.83;;;;;;;-143.21;78.67;72744.50;5073159;28;20603;-75
2023/10/18 02:41:49;;;;;;;17.80;11.73;;;;;;;-143.21;78.51;72744.50;5073529;28;20288;-74
2023/10/18 02:44:21;;;;;;;14.63;10.27;;;;;;;-143.21;78.65;72750.44;5073162;28;20232;-75
2023/10/18 02:46:54;;;;;;;15.17;9.40;;;;;;;-143.21;78.82;72740.53;5073344;28;20186;-75
2023/10/18 02:49:22;;;;;;;15.90;10.23;;;;;;;-143.21;78.93;72742.50;5073350;28;20209;-75
2023/10/18 02:51:49;;;;;;;15.20;9.43;;;;;;;-143.21;78.82;72728.63;5073610;28;20267;-74
2023/10/18 02:54:22;;;;;;;13.30;9.07;;;;;;;-143.21;78.66;72728.63;5073229;28;20205;-75
2023/10/18 02:56:53;;;;;;;13.83;8.97;;;;;;;-143.21;79.05;72728.63;5072675;28;20212;-74
2023/10/18 02:59:21;;;;;;;12.70;9.50;;;;;;;-143.21;78.81;72722.66;5072743;28;20174;-74
2023/10/18 03:01:50;;;;;;;12.90;9.50;;;;;;;-143.21;78.87;72730.59;5072859;28;20243;-75
2023/10/18 03:04:20;;;;;;;14.43;9.87;;;;;;;-143.21;79.53;72740.53;5072902;28;20225;-75
2023/10/18 03:06:46;;;;;;;16.33;9.80;;;;;;;-143.21;79.63;72748.47;5072601;28;20197;-75
2023/10/18 03:09:26;;;;;;;16.50;9.67;;;;;;;-143.21;79.76;72746.47;5072807;28;20217;-75
2023/10/18 03:11:55;;;;;;;15.33;9.30;;;;;;;-143.21;79.66;72746.47;5072778;28;20197;-75
2023/10/18 03:14:35;;;;;;;13.07;9.60;;;;;;;-143.21;79.42;72738.53;5072789;28;20227;-75
2023/10/18 03:17:14;;;;;;;13.47;9.63;;;;;;;-143.21;79.40;72730.59;5072357;28;20235;-75
2023/10/18 03:19:43;;;;;;;15.67;10.60;;;;;;;-143.21;79.43;72740.53;5071515;28;20662;-74
2023/10/18 03:22:10;;;;;;;14.37;9.90;;;;;;;-143.21;79.42;72742.50;5071849;28;20270;-74
2023/10/18 03:24:37;;;;;;;14.67;9.87;;;;;;;-143.21;79.71;72750.44;5072118;28;20231;-74
2023/10/18 03:27:08;;;;;;;17.17;10.10;;;;;;;-143.21;79.59;72754.41;5066023;28;20194;-74
2023/10/18 03:29:38;;;;;;;14.77;9.53;;;;;;;-143.21;79.53;72738.53;5067128;28;20324;-73
2023/10/18 03:32:08;;;;;;;14.70;9.67;;;;;;;-143.21;79.27;72744.50;5068232;28;20205;-74
2023/10/18 03:34:37;;;;;;;15.93;9.90;;;;;;;-143.21;79.44;72764.31;5071818;28;20216;-74
2023/10/18 03:37:06;;;;;;;14.70;10.00;;;;;;;-143.21;80.05;72776.22;5071548;28;20194;-73
2023/10/18 03:39:33;;;;;;;15.80;9.63;;;;;;;-143.21;80.31;72804.00;5072331;28;20604;-74
2023/10/18 03:42:08;;;;;;;16.50;10.57;;;;;;;-143.21;81.11;72786.13;5067859;28;20205;-74
2023/10/18 03:44:35;;;;;;;14.47;10.17;;;;;;;-143.21;81.55;72786.13;5052535;28;20193;-74
2023/10/18 03:47:05;;;;;;;14.83;10.07;;;;;;;-143.21;81.55;72784.16;5071598;28;20193;-75
2023/10/18 03:49:36;;;;;;;13.03;9.83;;;;;;;-143.21;81.81;72780.19;5071637;28;20213;-75
2023/10/18 03:52:16;;;;;;;15.03;10.20;;;;;;;-143.21;81.21;72768.28;5071621;28;20243;-75
2023/10/18 03:54:47;;;;;;;13.63;10.33;;;;;;;-143.21;80.87;72764.31;5071369;28;20272;-75
2023/10/18 03:57:18;;;;;;;16.83;10.07;;;;;;;-143.21;80.13;72758.38;5071506;28;20699;-75
2023/10/18 03:59:46;;;;;;;14.67;9.57;;;;;;;-143.21;80.31;72750.44;5071859;28;20190;-75
2023/10/18 04:02:26;;;;;;;11.43;8.70;;;;;;;-143.21;80.11;72740.53;5071652;28;20572;-76
2023/10/18 04:05:00;;;;;;;13.53;9.23;;;;;;;-143.21;80.13;72732.59;5072042;28;20275;-75
2023/10/18 04:07:29;;;;;;;15.33;9.17;;;;;;;-143.21;79.74;72726.63;5070769;28;20197;-75
2023/10/18 04:10:13;;;;;;;14.03;8.80;;;;;;;-143.21;79.48;72728.63;5071246;28;20600;-76
2023/10/18 04:12:43;;;;;;;11.37;8.43;;;;;;;-143.21;78.81;72724.66;5071152;28;20201;-76
2023/10/18 04:15:19;;;;;;;14.53;8.80;;;;;;;-143.21;78.65;72718.69;5070749;28;20201;-76
2023/10/18 04:17:49;;;;;;;12.67;8.60;;;;;;;-143.21;78.07;72718.69;5071545;28;20186;-76
2023/10/18 04:20:23;;;;;;;11.37;8.13;;;;;;;-143.21;78.34;72714.72;5071221;28;20211;-76
2023/10/18 04:22:51;;;;;;;14.17;8.77;;;;;;;-143.21;78.61;72710.78;5071140;28;20293;-75
2023/10/18 04:25:25;;;;;;;13.63;8.87;;;;;;;-143.21;78.78;72712.75;5071211;28;20286;-75
2023/10/18 04:27:52;;;;;;;14.57;8.60;;;;;;;-143.21;78.06;72714.72;5071085;28;20247;-76
2023/10/18 04:30:22;;;;;;;13.50;8.67;;;;;;;-143.21;77.98;72716.72;5070723;28;20248;-76
2023/10/18 04:32:53;;;;;;;12.30;8.70;;;;;;;-143.21;78.00;72720.69;5067768;28;20204;-76
2023/10/18 04:35:27;;;;;;;14.90;9.27;;;;;;;-143.21;78.11;72716.72;5071002;28;20190;-75
2023/10/18 04:37:55;;;;;;;13.43;8.27;;;;;;;-143.21;77.85;72712.75;5071525;28;20278;-78
2023/10/18 04:40:25;;;;;;;12.87;8.73;;;;;;;-143.21;77.90;72716.72;5071156;28;20216;-77
2023/10/18 04:42:54;;;;;;;12.73;8.90;;;;;;;-143.21;77.90;72716.72;5071045;28;20193;-76
2023/10/18 04:45:23;;;;;;;10.47;8.33;;;;;;;-143.21;78.56;72724.66;5071282;28;20189;-76
2023/10/18 04:47:50;;;;;;;11.47;8.20;;;;;;;-143.21;77.75;72720.69;5070841;28;20209;-76
2023/10/18 04:50:22;;;;;;;11.90;9.13;;;;;;;-143.21;78.48;72732.59;5070983;28;20280;-76
2023/10/18 04:52:50;;;;;;;11.57;8.70;;;;;;;-143.21;78.82;72746.47;5070915;28;20232;-76
2023/10/18 04:55:17;;;;;;;11.50;8.63;;;;;;;-143.21;79.40;72748.47;5071139;28;20197;-76
2023/10/18 04:57:43;;;;;;;9.30;7.90;;;;;;;-143.21;79.98;72768.28;5070641;28;20210;-77
2023/10/18 05:00:35;;;;;;;12.97;8.50;;;;;;;-143.21;80.08;72796.06;5071018;28;20574;-76
2023/10/18 05:03:02;;;;;;;14.00;7.80;;;;;;;-143.21;79.29;72847.63;5070301;28;20227;-78
2023/10/18 05:05:29;;;;;;;13.00;8.63;;;;;;;-143.21;80.58;72841.69;5070924;28;20190;-77
2023/10/18 05:07:57;;;;;;;10.07;7.93;;;;;;;-143.21;81.18;72839.69;5070937;28;20592;-78
2023/10/18 05:10:28;;;;;;;10.97;7.93;;;;;;;-143.21;81.37;72833.75;5070787;28;20193;-78
2023/10/18 05:13:01;;;;;;;10.67;8.40;;;;;;;-143.21;81.12;72825.81;5070732;28;20192;-77
2023/10/18 05:15:31;;;;;;;12.73;8.23;;;;;;;-143.21;81.30;72819.84;5070365;28;20181;-78
2023/10/18 05:18:04;;;;;;;11.63;8.13;;;;;;;-143.21;80.95;72809.94;5070899;28;20200;-78
2023/10/18 05:20:46;;;;;;;12.97;8.33;;;;;;;-143.21;80.76;72802.00;5072943;28;20382;-78
2023/10/18 05:23:21;;;;;;;13.90;7.87;;;;;;;-143.21;80.54;72800.03;5074160;28;20666;-77
2023/10/18 05:25:48;;;;;;;9.47;7.80;;;;;;;-143.21;80.34;72807.97;5074769;28;20232;-78
2023/10/18 05:28:17;;;;;;;12.60;7.40;;;;;;;-143.21;79.74;72805.97;5058563;28;20642;-77
2023/10/18 05:36:29;;;;;;;13.87;8.30;;;;;;;-143.21;79.50;72784.16;5073333;28;20223;-78
2023/10/18 05:39:18;;;;;;;11.63;7.87;;;;;;;-143.21;78.79;72764.31;5074050;28;20189;-78
2023/10/18 05:41:45;;;;;;;10.90;7.80;;;;;;;-143.21;78.36;72762.34;5073410;28;20616;-78
2023/10/18 05:44:17;;;;;;;11.67;7.70;;;;;;;-143.21;78.40;72760.34;5073575;28;20205;-78
2023/10/18 05:46:50;;;;;;;8.27;6.60;;;;;;;-143.21;78.67;72754.41;5070473;28;20205;-78
2023/10/18 05:49:23;;;;;;;13.47;7.40;;;;;;;-143.21;78.86;72740.53;5052762;28;20271;-77
2023/10/18 05:51:54;;;;;;;12.27;7.47;;;;;;;-143.21;78.26;72728.63;5053383;28;20285;-77
2023/10/18 05:54:24;;;;;;;10.53;6.50;;;;;;;-143.21;78.46;72724.66;5053766;28;20198;-77
2023/10/18 05:56:53;;;;;;;9.53;7.30;;;;;;;-143.21;78.13;72720.69;5060363;28;20267;-77
2023/10/18 05:59:31;;;;;;;8.13;6.53;;;;;;;-143.21;77.18;72704.81;5073599;28;20225;-78
2023/10/18 06:02:00;;;;;;;11.07;7.10;;;;;;;-143.21;76.76;72698.88;5074060;28;20664;-78
2023/10/18 06:04:29;;;;;;;10.27;6.67;;;;;;;-143.21;76.79;72700.84;5073385;28;20197;-77
2023/10/18 06:06:59;;;;;;;9.73;6.80;;;;;;;-143.21;76.61;72698.88;5073208;28;20205;-77
2023/10/18 06:09:32;;;;;;;9.67;6.73;;;;;;;-143.21;76.67;72706.81;5073289;28;20304;-78
2023/10/18 06:12:15;;;;;;;;;;;;;;;;;;;;;
2023/10/18 06:14:45;;;;;;;8.87;6.70;;;;;;;-143.21;76.13;72714.72;5071887;28;20201;-77
2023/10/18 06:17:14;;;;;;;7.90;6.87;;;;;;;-143.21;76.60;72702.84;5073632;28;20232;-77
2023/10/18 06:19:45;;;;;;;7.00;6.10;;;;;;;-143.21;76.37;72704.81;5073356;28;20233;-76
2023/10/18 06:22:27;;;;;;;7.27;5.90;;;;;;;-143.21;76.19;72700.84;5073289;28;20316;-77
2023/10/18 06:25:00;;;;;;;9.53;6.60;;;;;;;-143.21;75.75;72694.91;5073362;28;20181;-78
2023/10/18 06:27:29;;;;;;;7.50;6.03;;;;;;;-143.21;75.56;72696.88;5061709;28;20194;-77
2023/10/18 06:29:59;;;;;;;7.93;6.20;;;;;;;-143.21;75.48;72688.94;5052413;28;20230;-78
2023/10/18 06:32:28;;;;;;;9.23;5.97;;;;;;;-143.21;75.29;72688.94;5052844;28;20206;-78
2023/10/18 06:34:57;;;;;;;9.50;6.30;;;;;;;-143.21;75.08;72692.91;5052876;28;20194;-78
2023/10/18 06:37:24;;;;;;;9.00;6.27;;;;;;;-143.21;75.18;72692.91;5053236;28;20194;-78
2023/10/18 06:39:51;;;;;;;8.00;6.37;;;;;;;-143.21;75.07;72681.03;5053025;28;20206;-79
2023/10/18 06:42:26;;;;;;;8.97;6.50;;;;;;;-143.21;74.73;72688.94;5053196;28;20224;-78
2023/10/18 06:44:54;;;;;;;8.53;6.07;;;;;;;-143.21;74.67;72685.00;5052904;28;20268;-77
2023/10/18 06:47:30;;;;;;;11.83;6.07;;;;;;;-143.21;74.69;72685.00;5056144;28;20205;-76
2023/10/18 06:49:59;;;;;;;8.43;6.30;;;;;;;-143.21;74.40;72686.97;5072586;28;20680;-76
2023/10/18 06:52:28;;;;;;;10.83;6.67;;;;;;;-143.21;74.46;72681.03;5071469;28;20541;-79
2023/10/18 06:55:02;;;;;;;9.33;6.83;;;;;;;-143.21;74.22;72677.06;5072123;28;20665;-80
2023/10/18 06:57:35;;;;;;;7.27;6.13;;;;;;;-143.21;74.38;72681.03;5068148;28;20194;-78
2023/10/18 07:00:11;;;;;;;9.20;6.67;;;;;;;-143.21;73.89;72675.06;5071030;28;20205;-77
2023/10/18 07:02:41;;;;;;;15.20;8.73;;;;;;;-143.21;73.82;72663.16;5069371;28;20201;-78
2023/10/18 07:05:09;;;;;;;11.57;7.40;;;;;;;-143.21;73.78;72659.19;5083488;28;20202;-77
2023/10/18 07:07:37;;;;;;;9.60;7.00;;;;;;;-143.21;74.04;72649.28;5091412;28;20225;-77
2023/10/18 07:10:19;;;;;;;13.17;7.47;;;;;;;-143.21;73.80;72651.28;5092764;28;20304;-77
2023/10/18 07:12:52;;;;;;;11.00;7.33;;;;;;;-143.21;73.67;72649.28;5092413;28;20613;-77
2023/10/18 07:15:22;;;;;;;9.37;6.83;;;;;;;-143.21;73.44;72641.34;5075310;28;20268;-78
2023/10/18 07:17:52;;;;;;;10.93;7.37;;;;;;;-143.21;72.59;72629.44;5071663;28;20200;-78
2023/10/18 07:20:21;;;;;;;10.60;7.97;;;;;;;-143.21;72.36;72629.44;5071813;28;20201;-77
2023/10/18 07:22:54;;;;;;;10.47;7.07;;;;;;;-143.21;72.38;72627.47;5071806;28;20782;-77
2023/10/18 07:25:26;;;;;;;9.93;7.43;;;;;;;-143.21;72.35;72619.53;5072622;28;20221;-77
2023/10/18 07:27:57;;;;;;;12.17;7.33;;;;;;;-143.21;72.41;72609.63;5069364;28;20205;-78
2023/10/18 07:30:37;;;;;;;12.17;7.63;;;;;;;-143.21;72.44;72609.63;5062548;28;20238;-77
2023/10/18 07:33:09;;;;;;;10.73;7.47;;;;;;;-143.21;72.10;72597.72;5070093;28;20181;-78
2023/10/18 07:35:37;;;;;;;12.03;8.10;;;;;;;-143.21;72.04;72599.69;5050608;28;20202;-77
2023/10/18 07:38:05;;;;;;;9.30;7.57;;;;;;;-143.21;72.10;72595.75;5063601;28;20201;-77
2023/10/18 07:40:35;;;;;;;11.07;8.03;;;;;;;-143.21;71.53;72591.78;5070498;28;20193;-77
2023/10/18 07:43:12;;;;;;;10.07;7.33;;;;;;;-143.21;72.11;72595.75;5069413;28;20193;-77
2023/10/18 07:45:39;;;;;;;13.47;7.07;;;;;;;-143.21;72.07;72633.41;5070729;28;20643;-78
2023/10/18 07:48:11;;;;;;;10.60;7.07;;;;;;;-143.21;71.87;72669.13;5050850;28;20659;-77
2023/10/18 07:50:43;;;;;;;10.87;7.50;;;;;;;-143.21;73.65;72702.84;5067696;28;20213;-77
2023/10/18 07:53:13;;;;;;;13.63;7.77;;;;;;;-143.21;72.94;72716.72;5065989;28;20255;-77
2023/10/18 07:55:42;;;;;;;12.47;7.97;;;;;;;-143.21;74.38;72706.81;5068481;28;20209;-79
2023/10/18 07:58:24;;;;;;;11.73;7.80;;;;;;;-143.21;75.43;72677.06;5071586;28;20205;-78
2023/10/18 08:03:42;;;;;;;12.30;7.37;;;;;;;-143.21;73.48;72631.44;5069063;28;20189;-79
2023/10/18 08:06:26;;;;;;;12.70;8.07;;;;;;;-143.21;72.07;72607.63;5071399;28;20177;-78
2023/10/18 08:08:53;;;;;;;9.97;7.33;;;;;;;-143.21;71.08;72599.69;5070849;28;20197;-79
2023/10/18 08:11:23;;;;;;;11.13;7.50;;;;;;;-143.21;71.02;72583.84;5071511;28;20220;-79
2023/10/18 08:13:54;;;;;;;10.47;7.80;;;;;;;-143.21;71.02;72564.00;5071206;28;20200;-80
2023/10/18 08:16:26;;;;;;;10.73;7.20;;;;;;;-143.21;70.87;72548.13;5071810;28;20197;-79
2023/10/18 08:18:53;;;;;;;12.03;7.40;;;;;;;-143.21;69.68;72556.06;5070722;28;20258;-80
2023/10/18 08:21:36;;;;;;;11.93;7.63;;;;;;;-143.21;69.46;72538.22;5071155;28;20291;-80
2023/10/18 08:24:08;;;;;;;10.23;7.37;;;;;;;-143.21;69.79;72522.34;5071325;28;20217;-78
2023/10/18 08:26:45;;;;;;;11.37;7.50;;;;;;;-143.21;69.21;72508.47;5071560;28;20197;-78
2023/10/18 08:29:14;;;;;;;11.53;7.27;;;;;;;-143.21;68.52;72490.63;5070619;28;20236;-77
2023/10/18 08:31:44;;;;;;;15.57;7.73;;;;;;;-143.21;68.14;72478.72;5070906;28;20232;-79
2023/10/18 08:34:34;;;;;;;11.30;6.80;;;;;;;-143.21;68.04;72474.75;5071180;28;20205;-78
2023/10/18 08:37:03;;;;;;;8.70;6.70;;;;;;;-143.21;68.14;72470.78;5066104;28;20208;-77
2023/10/18 08:39:30;;;;;;;11.53;7.20;;;;;;;-143.21;67.98;72464.84;5070567;28;20190;-78
2023/10/18 08:42:08;;;;;;;7.90;6.30;;;;;;;-143.21;67.37;72452.94;5071253;28;20247;-78
2023/10/18 08:44:38;;;;;;;10.00;6.70;;;;;;;-143.21;67.13;72441.03;5071230;28;20280;-78
2023/10/18 08:47:13;;;;;;;9.53;6.93;;;;;;;-143.21;66.49;72437.06;5070978;28;20272;-79
2023/10/18 08:49:51;;;;;;;8.83;6.30;;;;;;;-143.21;65.42;72435.09;5070715;28;20271;-79
2023/10/18 08:52:20;;;;;;;7.93;6.20;;;;;;;-143.21;65.38;72433.09;5070918;28;20197;-79
2023/10/18 08:54:49;;;;;;;12.57;7.10;;;;;;;-143.21;66.62;72490.63;5073716;28;20193;-80
2023/10/18 08:57:24;;;;;;;10.37;6.70;;;;;;;-143.21;67.01;72538.22;5075289;28;20201;-80
2023/10/18 08:59:56;;;;;;;9.97;6.67;;;;;;;-143.21;68.22;72550.13;5075225;28;20188;-78
2023/10/18 09:02:22;;;;;;;10.47;6.20;;;;;;;-143.21;68.70;72538.22;5073374;28;20201;-80
2023/10/18 09:04:54;;;;;;;8.27;6.60;;;;;;;-143.21;68.33;72516.41;5071388;28;20197;-78
2023/10/18 09:07:23;;;;;;;7.90;6.23;;;;;;;-143.21;68.08;72506.50;5073103;28;20669;-79
2023/10/18 09:09:55;;;;;;;8.17;6.53;;;;;;;-143.21;67.71;72494.59;5073260;28;20221;-77
2023/10/18 09:12:33;;;;;;;10.43;6.53;;;;;;;-143.21;67.15;72470.78;5072884;28;20722;-77
2023/10/18 09:15:27;;;;;;;10.83;6.87;;;;;;;-143.21;66.93;72458.88;5073788;28;20559;-77
2023/10/18 09:17:47;;;;;;;24.27;11.30;;;;;;;-143.21;66.74;72462.84;5071819;28;20932;-78
2023/10/18 09:20:16;;;;;;;17.47;8.87;;;;;;;-143.21;67.09;72512.44;5072212;28;20280;-77
2023/10/18 09:22:45;;;;;;;9.53;7.23;;;;;;;-143.21;67.19;72538.22;5074171;28;20197;-78
2023/10/18 09:25:13;;;;;;;12.23;7.07;;;;;;;-143.21;68.00;72530.28;5073077;28;20201;-78
2023/10/18 09:27:40;;;;;;;9.87;7.50;;;;;;;-143.21;68.00;72542.19;5068226;28;20297;-78
2023/10/18 09:30:13;;;;;;;11.70;7.17;;;;;;;-143.21;66.84;72534.25;5063355;28;20240;-77
2023/10/18 09:32:40;;;;;;;9.07;6.70;;;;;;;-143.21;66.83;72522.34;5071018;28;20733;-78
2023/10/18 09:35:08;;;;;;;9.30;6.67;;;;;;;-143.21;66.74;72510.44;5073732;28;20572;-77
2023/10/18 09:37:36;;;;;;;30.20;15.63;;;;;;;-143.21;67.38;72498.56;5073860;28;20221;-80
2023/10/18 09:46:21;;;;;;;10.33;6.97;;;;;;;-143.21;66.30;72445.00;5067165;28;20205;-77
2023/10/18 09:48:48;;;;;;;11.43;7.00;;;;;;;-143.21;65.77;72439.06;5069062;28;20213;-78
2023/10/18 09:51:20;;;;;;;10.40;7.00;;;;;;;-143.21;65.35;72437.06;5070379;28;20229;-75
2023/10/18 09:53:50;;;;;;;11.23;7.20;;;;;;;-143.21;65.26;72435.09;5068784;28;20639;-77
2023/10/18 09:56:24;;;;;;;10.80;7.30;;;;;;;-143.21;65.13;72439.06;5067977;28;20214;-75
2023/10/18 10:04:21;;;;;;;10.90;7.90;;;;;;;-143.21;65.56;72397.41;5068332;28;20200;-77
2023/10/18 10:06:53;;;;;;;13.00;7.60;;;;;;;-143.21;65.86;72389.47;5069582;28;20201;-77
2023/10/18 10:09:29;;;;;;;14.20;7.10;;;;;;;-143.21;65.89;72389.47;5069906;28;20208;-76
2023/10/18 10:11:59;;;;;;;9.63;6.70;;;;;;;-143.21;64.74;72371.63;5064561;28;20210;-77
2023/10/18 10:14:29;;;;;;;11.90;6.90;;;;;;;-143.21;64.93;72393.44;5064020;28;20289;-78
2023/10/18 10:17:05;;;;;;;9.93;7.10;;;;;;;-143.21;65.50;72417.25;5066257;28;20269;-80
2023/10/18 10:19:35;;;;;;;13.90;7.97;;;;;;;-143.21;66.68;72411.28;5064502;28;20197;-78
2023/10/18 10:22:05;;;;;;;10.27;6.47;;;;;;;-143.21;65.91;72383.53;5067022;28;20217;-78
2023/10/18 10:24:35;;;;;;;10.77;7.23;;;;;;;-143.21;65.33;72361.72;5070796;28;20277;-78
2023/10/18 10:27:28;;;;;;;11.17;7.37;;;;;;;-143.21;64.70;72343.88;5067960;28;20660;-78
2023/10/18 10:29:57;;;;;;;11.50;7.33;;;;;;;-143.21;64.41;72331.97;5064684;28;20233;-78
2023/10/18 10:32:26;;;;;;;11.17;7.37;;;;;;;-143.21;65.51;72355.75;5068030;28;20205;-78
2023/10/18 10:35:15;;;;;;;12.33;8.03;;;;;;;-143.21;65.99;72391.47;5069110;28;20672;-79
2023/10/18 10:37:47;;;;;;;11.40;7.93;;;;;;;-143.21;66.91;72385.50;5067014;28;20209;-79
2023/10/18 10:40:35;;;;;;;15.33;8.03;;;;;;;-143.21;66.76;72361.72;5067666;28;20837;-77
2023/10/18 10:43:04;;;;;;;8.90;6.90;;;;;;;-143.21;65.66;72337.91;5069612;28;20641;-78
2023/10/18 10:45:35;;;;;;;8.93;6.60;;;;;;;-143.21;64.70;72337.91;5067354;28;20255;-77
2023/10/18 10:48:46;;;;;;;10.17;6.70;;;;;;;-143.21;64.58;72333.94;5067245;28;20636;-77
2023/10/18 10:51:12;;;;;;;8.53;6.27;;;;;;;-143.21;64.74;72328.00;5066128;28;20275;-77
2023/10/18 10:53:46;;;;;;;8.37;6.27;;;;;;;-143.21;64.09;72312.13;5068877;28;20266;-76
2023/10/18 10:56:20;;;;;;;10.63;6.13;;;;;;;-143.21;63.32;72328.00;5065325;28;20211;-76
2023/10/18 10:59:03;;;;;;;7.77;6.20;;;;;;;-143.21;63.63;72328.00;5066252;28;20259;-78
2023/10/18 11:02:05;;;;;;;8.63;6.70;;;;;;;-143.21;64.18;72335.94;5066603;28;20201;-77
2023/10/18 11:04:57;;;;;;;10.43;6.80;;;;;;;-143.21;64.82;72329.97;5072874;28;20272;-77
2023/10/18 11:07:26;;;;;;;11.23;7.17;;;;;;;-143.21;65.12;72328.00;5072193;28;20228;-77
2023/10/18 11:09:59;;;;;;;12.27;6.60;;;;;;;-143.21;64.95;72328.00;5072342;28;20197;-77
2023/10/18 11:12:27;;;;;;;9.37;7.17;;;;;;;-143.21;64.85;72331.97;5072198;28;20267;-76
2023/10/18 11:14:54;;;;;;;10.73;7.23;;;;;;;-143.21;64.65;72322.06;5072393;28;20202;-76
2023/10/18 11:17:23;;;;;;;8.13;6.40;;;;;;;-143.21;63.65;72329.97;5071492;28;20193;-76
2023/10/18 11:19:54;;;;;;;6.93;5.83;;;;;;;-143.21;63.85;72347.84;5072245;28;20251;-76
2023/10/18 11:22:22;;;;;;;8.13;6.53;;;;;;;-143.21;64.31;72363.69;5071854;28;20221;-76
2023/10/18 11:24:50;;;;;;;9.43;6.80;;;;;;;-143.21;64.48;72369.66;5073015;28;20221;-80
2023/10/18 11:27:18;;;;;;;9.70;7.17;;;;;;;-143.21;64.93;72407.31;5070864;28;20251;-80
2023/10/18 11:29:52;;;;;;;10.50;7.13;;;;;;;-143.21;65.90;72447.00;5052096;28;20700;-78
2023/10/18 11:32:19;;;;;;;8.53;6.53;;;;;;;-143.21;68.31;72470.78;5055515;28;20285;-76
2023/10/18 11:34:46;;;;;;;13.30;7.10;;;;;;;-143.21;68.41;72462.84;5072226;28;20288;-79
2023/10/18 11:37:44;;;;;;;10.23;7.50;;;;;;;-143.21;68.53;72439.06;5071792;28;20224;-80
2023/10/18 11:40:29;;;;;;;10.07;7.30;;;;;;;-143.21;67.97;72425.19;5070251;28;20549;-79
2023/10/18 11:43:05;;;;;;;12.07;7.73;;;;;;;-143.21;67.89;72403.34;5070869;28;20205;-78
2023/10/18 11:45:32;;;;;;;12.90;7.70;;;;;;;-143.21;67.75;72379.56;5070914;28;20197;-80
2023/10/18 11:48:02;;;;;;;11.20;7.20;;;;;;;-143.21;66.55;72363.69;5072018;28;20652;-80
2023/10/18 11:50:41;;;;;;;11.50;7.17;;;;;;;-143.21;65.87;72351.78;5071096;28;20312;-79
2023/10/18 11:53:12;;;;;;;10.77;7.50;;;;;;;-143.21;66.19;72373.63;5061983;28;20263;-77